Time;durP1;ratioP1;P1;durP2;ratioP2;P2;SDS_P1;SDS_P2;PMS_P1;PMS_P2;Temp;Humidity;BMP_temperature;BMP_pressure;BME280_temperature;BME280_humidity;BME280_pressure;Samples;Min_cycle;Max_cycle;Signal;HPM_P1;HPM_P2
2021/08/15 00:00:27;;;;;;;12.20;8.67;;;25.90;99.90;;;;;;5094727;28;20441;-81
2021/08/15 00:02:55;;;;;;;9.20;8.30;;;25.90;99.90;;;;;;5094821;28;20518;-81
2021/08/15 00:05:24;;;;;;;9.60;8.60;;;25.90;99.90;;;;;;5094236;28;20434;-81
2021/08/15 00:07:54;;;;;;;9.47;8.47;;;25.80;99.90;;;;;;5093870;28;21022;-81
2021/08/15 00:10:23;;;;;;;9.27;8.23;;;25.70;99.90;;;;;;5093655;28;20583;-81
2021/08/15 00:12:51;;;;;;;10.43;9.23;;;25.70;99.90;;;;;;5072702;28;20481;-81
2021/08/15 00:15:20;;;;;;;9.10;8.20;;;25.70;99.90;;;;;;5094152;28;20457;-81
2021/08/15 00:17:48;;;;;;;9.53;8.27;;;25.70;99.90;;;;;;5092627;28;20472;-81
2021/08/15 00:20:17;;;;;;;9.40;8.27;;;25.70;99.90;;;;;;5094299;28;20507;-82
2021/08/15 00:22:45;;;;;;;9.87;8.87;;;25.70;99.90;;;;;;5074959;28;20505;-81
2021/08/15 00:25:16;;;;;;;10.77;9.67;;;25.60;99.90;;;;;;5056022;28;20450;-82
2021/08/15 00:27:45;;;;;;;10.53;9.53;;;25.60;99.90;;;;;;5072353;28;20537;-81
2021/08/15 00:30:15;;;;;;;8.63;7.73;;;25.50;1.00;;;;;;5087294;28;20527;-81
2021/08/15 00:32:45;;;;;;;9.17;8.27;;;25.60;1.00;;;;;;5092541;28;20553;-81
2021/08/15 00:35:13;;;;;;;9.40;8.50;;;25.50;1.00;;;;;;5093680;28;20430;-82
2021/08/15 00:37:41;;;;;;;9.57;8.57;;;25.50;1.00;;;;;;5092812;28;20503;-81
2021/08/15 00:40:11;;;;;;;10.50;8.80;;;25.50;1.00;;;;;;5094117;28;20422;-81
2021/08/15 00:42:41;;;;;;;9.70;8.70;;;25.50;1.00;;;;;;5093464;28;20469;-80
2021/08/15 00:45:10;;;;;;;12.33;8.20;;;25.50;1.00;;;;;;5075007;28;20883;-81
2021/08/15 00:47:38;;;;;;;12.60;8.77;;;25.40;1.00;;;;;;5093141;28;20469;-81
2021/08/15 00:50:07;;;;;;;9.47;8.57;;;25.40;1.00;;;;;;5092044;28;20438;-81
2021/08/15 00:52:35;;;;;;;9.03;8.07;;;25.50;1.00;;;;;;5093704;28;20957;-81
2021/08/15 00:55:07;;;;;;;9.53;8.53;;;25.50;1.00;;;;;;5092979;28;20452;-81
2021/08/15 00:57:37;;;;;;;10.10;9.10;;;25.50;1.00;;;;;;5093636;28;20469;-81
2021/08/15 01:00:09;;;;;;;9.90;7.60;;;25.40;1.00;;;;;;5093138;28;20430;-81
2021/08/15 01:02:38;;;;;;;9.80;8.80;;;25.40;1.00;;;;;;5093321;28;20527;-81
2021/08/15 01:05:08;;;;;;;11.00;9.03;;;25.30;1.00;;;;;;5093146;28;20875;-81
2021/08/15 01:07:37;;;;;;;8.80;8.00;;;25.30;1.00;;;;;;5093461;28;20427;-80
2021/08/15 01:10:07;;;;;;;9.87;7.40;;;25.30;1.00;;;;;;5073903;28;20454;-81
2021/08/15 01:12:35;;;;;;;8.77;7.87;;;25.30;1.00;;;;;;5092850;28;20470;-82
2021/08/15 01:15:07;;;;;;;9.90;9.00;;;25.30;1.00;;;;;;5092482;28;20960;-81
2021/08/15 01:17:35;;;;;;;9.30;8.40;;;25.20;1.00;;;;;;5093148;28;21016;-81
2021/08/15 01:20:04;;;;;;;8.60;7.67;;;25.20;1.00;;;;;;5072692;28;20472;-81
2021/08/15 01:22:36;;;;;;;8.57;7.77;;;25.20;1.00;;;;;;5093383;28;20469;-81
2021/08/15 01:25:06;;;;;;;9.00;8.10;;;25.20;1.00;;;;;;5091497;28;20453;-81
2021/08/15 01:27:38;;;;;;;10.93;8.30;;;25.20;1.00;;;;;;5075373;28;20442;-81
2021/08/15 01:30:10;;;;;;;8.10;7.40;;;25.10;1.00;;;;;;5091993;28;20562;-81
2021/08/15 01:32:39;;;;;;;8.33;7.10;;;25.10;1.00;;;;;;5093366;28;20587;-81
2021/08/15 01:35:08;;;;;;;8.87;8.03;;;25.10;1.00;;;;;;5091689;28;20442;-81
2021/08/15 01:37:37;;;;;;;8.70;7.90;;;25.10;1.00;;;;;;5073579;28;20491;-81
2021/08/15 01:40:06;;;;;;;7.83;7.03;;;25.10;1.00;;;;;;5091603;28;20445;-81
2021/08/15 01:42:35;;;;;;;9.33;7.83;;;25.00;1.00;;;;;;5092597;28;20546;-80
2021/08/15 01:45:09;;;;;;;8.87;7.87;;;25.00;1.00;;;;;;5073757;28;20850;-81
2021/08/15 01:47:37;;;;;;;8.30;7.50;;;25.00;1.00;;;;;;5091986;28;20449;-81
2021/08/15 01:50:07;;;;;;;10.00;8.00;;;25.00;1.00;;;;;;5094743;28;20430;-81
2021/08/15 01:52:35;;;;;;;8.77;7.47;;;24.90;1.00;;;;;;5097001;28;20511;-81
2021/08/15 01:55:04;;;;;;;9.77;8.17;;;24.90;1.00;;;;;;5095790;28;20479;-81
2021/08/15 01:57:32;;;;;;;8.13;7.33;;;24.80;1.00;;;;;;5078391;28;20576;-81
2021/08/15 02:00:00;;;;;;;8.33;7.60;;;24.80;1.00;;;;;;5076878;28;20498;-81
2021/08/15 02:02:30;;;;;;;9.93;8.07;;;24.80;1.00;;;;;;5095863;28;20457;-81
2021/08/15 02:04:58;;;;;;;9.20;8.40;;;24.80;1.00;;;;;;5077423;28;20456;-81
2021/08/15 02:07:26;;;;;;;8.83;8.00;;;24.80;1.00;;;;;;5077147;28;21021;-81
2021/08/15 02:09:54;;;;;;;9.03;8.23;;;24.80;1.00;;;;;;5094820;28;20441;-82
2021/08/15 02:12:22;;;;;;;9.47;8.30;;;24.70;1.00;;;;;;5094424;28;20465;-81
2021/08/15 02:14:51;;;;;;;9.40;7.63;;;24.70;1.00;;;;;;5095623;28;20445;-81
2021/08/15 02:17:19;;;;;;;8.50;7.70;;;24.70;1.00;;;;;;5096402;28;20520;-81
2021/08/15 02:19:48;;;;;;;8.73;7.63;;;24.70;1.00;;;;;;5092199;28;20464;-82
2021/08/15 02:22:16;;;;;;;10.90;7.37;;;24.70;1.00;;;;;;5074667;28;20866;-81
2021/08/15 02:24:44;;;;;;;9.93;8.97;;;24.60;1.00;;;;;;5056035;28;20439;-81
2021/08/15 02:27:13;;;;;;;8.63;7.50;;;24.60;1.00;;;;;;5074907;28;20860;-81
2021/08/15 02:29:41;;;;;;;10.03;9.03;;;24.60;1.00;;;;;;5093209;28;20859;-81
2021/08/15 02:32:09;;;;;;;8.10;7.30;;;24.60;1.00;;;;;;5095196;28;20462;-81
2021/08/15 02:34:37;;;;;;;10.90;8.50;;;24.50;1.00;;;;;;5095547;28;20445;-81
2021/08/15 02:37:06;;;;;;;9.37;8.40;;;24.50;1.00;;;;;;5094714;28;20468;-81
2021/08/15 02:39:35;;;;;;;8.90;8.10;;;24.50;1.00;;;;;;5094066;28;20462;-82
2021/08/15 02:42:03;;;;;;;9.80;8.03;;;24.50;1.00;;;;;;5094767;28;20454;-81
2021/08/15 02:44:31;;;;;;;8.50;7.80;;;24.50;1.00;;;;;;5094622;28;20791;-80
2021/08/15 02:46:59;;;;;;;8.57;7.67;;;24.50;1.00;;;;;;5074339;28;20435;-80
2021/08/15 02:49:27;;;;;;;10.30;9.00;;;24.50;1.00;;;;;;5074985;28;20554;-81
2021/08/15 02:51:55;;;;;;;12.67;10.40;;;24.50;1.00;;;;;;5055783;28;21061;-82
2021/08/15 02:54:25;;;;;;;15.73;11.67;;;24.50;1.00;;;;;;5090581;28;20437;-81
2021/08/15 02:56:53;;;;;;;31.17;19.17;;;24.40;1.00;;;;;;5099999;28;20449;-81
2021/08/15 02:59:25;;;;;;;18.80;14.50;;;24.40;1.00;;;;;;5094537;28;20445;-81
2021/08/15 03:01:53;;;;;;;9.97;8.93;;;24.40;1.00;;;;;;5092402;28;20473;-81
2021/08/15 03:04:22;;;;;;;10.10;9.03;;;24.40;1.00;;;;;;5094990;28;20434;-82
2021/08/15 03:06:50;;;;;;;9.40;7.73;;;24.30;1.00;;;;;;5093425;28;20441;-81
2021/08/15 03:09:18;;;;;;;8.50;7.73;;;24.30;1.00;;;;;;5093680;28;20981;-81
2021/08/15 03:11:48;;;;;;;8.80;6.87;;;24.30;1.00;;;;;;5092012;28;20450;-81
2021/08/15 03:14:16;;;;;;;8.40;7.50;;;24.30;1.00;;;;;;5095126;28;20933;-81
2021/08/15 03:16:44;;;;;;;8.47;7.57;;;24.30;1.00;;;;;;5093746;28;20484;-81
2021/08/15 03:19:12;;;;;;;9.90;7.33;;;24.20;1.00;;;;;;5094138;28;20969;-81
2021/08/15 03:21:40;;;;;;;8.83;7.70;;;24.20;1.00;;;;;;5093001;28;20489;-81
2021/08/15 03:24:09;;;;;;;9.70;8.40;;;24.20;1.00;;;;;;5094659;28;20949;-80
2021/08/15 03:26:40;;;;;;;8.60;7.50;;;24.20;1.00;;;;;;5093136;28;20481;-81
2021/08/15 03:29:10;;;;;;;8.83;7.80;;;24.20;1.00;;;;;;5076000;28;20457;-81
2021/08/15 03:31:38;;;;;;;8.07;7.23;;;24.20;1.00;;;;;;5092683;28;20441;-81
2021/08/15 03:34:06;;;;;;;9.60;8.17;;;24.20;1.00;;;;;;5094457;28;20998;-79
2021/08/15 03:36:35;;;;;;;9.63;8.63;;;24.20;1.00;;;;;;5092728;28;20514;-81
2021/08/15 03:39:03;;;;;;;9.17;7.73;;;24.30;1.00;;;;;;5094650;28;20466;-81
2021/08/15 03:41:31;;;;;;;8.37;7.57;;;24.20;1.00;;;;;;5093606;28;20446;-82
2021/08/15 03:43:59;;;;;;;8.40;7.53;;;24.20;1.00;;;;;;5093992;28;20447;-81
2021/08/15 03:46:29;;;;;;;7.90;7.03;;;24.30;1.00;;;;;;5074944;28;20449;-81
2021/08/15 03:48:57;;;;;;;9.40;8.50;;;24.20;1.00;;;;;;5093337;28;20495;-82
2021/08/15 03:51:25;;;;;;;9.00;7.63;;;24.20;1.00;;;;;;5093311;28;20453;-81
2021/08/15 03:53:53;;;;;;;8.23;7.27;;;24.20;1.00;;;;;;5093648;28;21097;-81
2021/08/15 03:56:21;;;;;;;8.80;7.90;;;24.20;1.00;;;;;;5092321;28;20560;-81
2021/08/15 03:58:49;;;;;;;8.13;7.33;;;24.20;1.00;;;;;;5093055;28;20465;-81
2021/08/15 04:01:18;;;;;;;8.17;7.37;;;24.10;1.00;;;;;;5092934;28;20483;-80
2021/08/15 04:03:47;;;;;;;11.53;7.63;;;24.10;1.00;;;;;;5074946;28;20496;-82
2021/08/15 04:06:21;;;;;;;9.50;7.43;;;24.10;1.00;;;;;;5074453;28;20848;-82
2021/08/15 04:08:50;;;;;;;8.53;7.70;;;24.00;1.00;;;;;;5093891;28;20922;-81
2021/08/15 04:11:19;;;;;;;7.90;7.10;;;24.00;1.00;;;;;;5091109;28;20474;-80
2021/08/15 04:13:47;;;;;;;9.93;8.50;;;24.00;1.00;;;;;;5075020;28;20458;-82
2021/08/15 04:16:15;;;;;;;8.47;7.63;;;24.00;1.00;;;;;;5092983;28;20957;-81
2021/08/15 04:18:43;;;;;;;7.43;6.67;;;23.90;1.00;;;;;;5092925;28;20569;-81
2021/08/15 04:21:13;;;;;;;8.63;7.20;;;24.00;1.00;;;;;;5074186;28;20453;-81
2021/08/15 04:23:41;;;;;;;9.27;6.90;;;23.90;1.00;;;;;;5073594;28;20470;-82
2021/08/15 04:26:09;;;;;;;10.40;7.57;;;23.90;1.00;;;;;;5092848;28;20441;-81
2021/08/15 04:28:37;;;;;;;8.20;7.47;;;23.90;1.00;;;;;;5092880;28;20444;-81
2021/08/15 04:31:05;;;;;;;8.97;8.07;;;23.90;1.00;;;;;;5074412;28;20438;-81
2021/08/15 04:33:33;;;;;;;8.57;7.70;;;23.90;1.00;;;;;;5092362;28;20454;-81
2021/08/15 04:36:01;;;;;;;7.90;7.20;;;23.90;1.00;;;;;;5092520;28;20441;-81
2021/08/15 04:38:31;;;;;;;9.37;8.40;;;23.90;1.00;;;;;;5092179;28;20984;-81
2021/08/15 04:40:59;;;;;;;9.57;7.23;;;23.90;1.00;;;;;;5073718;28;21026;-81
2021/08/15 04:43:27;;;;;;;8.30;7.50;;;23.90;1.00;;;;;;5091747;28;20469;-81
2021/08/15 04:45:55;;;;;;;7.87;7.07;;;23.90;1.00;;;;;;5071990;28;20492;-81
2021/08/15 04:48:24;;;;;;;10.73;8.27;;;23.90;1.00;;;;;;5071666;28;20443;-81
2021/08/15 04:50:52;;;;;;;10.50;8.83;;;23.90;1.00;;;;;;5071025;28;20437;-81
2021/08/15 04:53:20;;;;;;;7.53;6.77;;;23.90;1.00;;;;;;5072016;28;21007;-80
2021/08/15 04:55:49;;;;;;;7.77;7.00;;;23.90;1.00;;;;;;5071740;28;20431;-81
2021/08/15 04:58:17;;;;;;;8.53;7.60;;;23.80;1.00;;;;;;5072375;28;20491;-81
2021/08/15 05:00:46;;;;;;;7.90;7.27;;;23.70;1.00;;;;;;5074963;28;20437;-81
2021/08/15 05:03:16;;;;;;;8.63;7.87;;;23.60;13.30;;;;;;5090608;28;21061;-81
2021/08/15 05:05:44;;;;;;;9.27;8.03;;;23.70;1.00;;;;;;5092865;28;20804;-81
2021/08/15 05:08:12;;;;;;;8.83;7.93;;;23.80;1.00;;;;;;5091634;28;20434;-81
2021/08/15 05:10:42;;;;;;;9.93;8.53;;;23.90;1.00;;;;;;5091570;28;20442;-81
2021/08/15 05:13:11;;;;;;;14.27;9.20;;;23.90;1.00;;;;;;5071736;28;20515;-81
2021/08/15 05:15:40;;;;;;;8.87;7.97;;;23.90;1.00;;;;;;5092447;28;20446;-81
2021/08/15 05:18:08;;;;;;;8.70;7.90;;;24.00;1.00;;;;;;5090542;28;20965;-82
2021/08/15 05:20:37;;;;;;;8.03;7.33;;;23.90;1.00;;;;;;5091848;28;20477;-81
2021/08/15 05:23:05;;;;;;;9.10;8.20;;;23.90;1.00;;;;;;5090799;28;20446;-81
2021/08/15 05:25:33;;;;;;;9.07;8.20;;;23.90;1.00;;;;;;5092506;28;20433;-81
2021/08/15 05:28:01;;;;;;;8.27;7.47;;;23.90;1.00;;;;;;5090766;28;20474;-81
2021/08/15 05:30:31;;;;;;;9.00;8.10;;;24.00;1.00;;;;;;5073057;28;20438;-81
2021/08/15 05:32:59;;;;;;;10.00;8.23;;;23.90;1.00;;;;;;5091113;28;20446;-81
2021/08/15 05:35:27;;;;;;;9.50;8.17;;;24.00;1.00;;;;;;5092009;28;21026;-81
2021/08/15 05:37:55;;;;;;;8.60;7.70;;;24.00;1.00;;;;;;5091718;28;20430;-81
2021/08/15 05:40:23;;;;;;;10.60;8.37;;;24.00;1.00;;;;;;5091442;28;20473;-81
2021/08/15 05:42:52;;;;;;;9.17;8.13;;;24.00;1.00;;;;;;5073046;28;20476;-81
2021/08/15 05:45:20;;;;;;;8.90;7.80;;;24.00;1.00;;;;;;5091559;28;20804;-80
2021/08/15 05:47:50;;;;;;;12.17;8.60;;;24.00;1.00;;;;;;5090612;28;20445;-81
2021/08/15 05:50:19;;;;;;;8.77;7.60;;;24.00;1.00;;;;;;5092071;28;20521;-80
2021/08/15 05:52:47;;;;;;;8.67;7.80;;;24.00;1.00;;;;;;5090421;28;20482;-81
2021/08/15 05:55:15;;;;;;;8.03;7.23;;;24.10;1.00;;;;;;5091390;28;20445;-81
2021/08/15 05:57:43;;;;;;;9.73;8.73;;;24.10;1.00;;;;;;5072679;28;20953;-81
2021/08/15 06:00:12;;;;;;;9.20;8.30;;;24.10;1.00;;;;;;5074826;28;20511;-81
2021/08/15 06:02:41;;;;;;;9.90;8.97;;;24.10;23.00;;;;;;5073606;28;20472;-81
2021/08/15 06:05:12;;;;;;;10.30;8.90;;;24.10;20.40;;;;;;5091691;28;20499;-82
2021/08/15 06:07:40;;;;;;;10.23;8.40;;;24.10;49.60;;;;;;5090654;28;20437;-82
2021/08/15 06:10:10;;;;;;;8.57;7.77;;;24.20;59.10;;;;;;5091175;28;20461;-80
2021/08/15 06:12:39;;;;;;;10.23;8.30;;;24.30;1.00;;;;;;5089529;28;20469;-81
2021/08/15 06:15:12;;;;;;;10.03;8.87;;;24.30;17.20;;;;;;5091162;28;20446;-81
2021/08/15 06:17:40;;;;;;;10.43;8.40;;;24.30;1.00;;;;;;5088516;28;20490;-81
2021/08/15 06:20:11;;;;;;;8.23;7.43;;;24.40;1.00;;;;;;5071006;28;20509;-81
2021/08/15 06:22:41;;;;;;;9.63;7.77;;;24.50;1.00;;;;;;5070402;28;20842;-81
2021/08/15 06:25:10;;;;;;;9.10;8.20;;;24.50;1.00;;;;;;5070768;28;20427;-81
2021/08/15 06:27:42;;;;;;;9.60;7.70;;;24.70;1.00;;;;;;5071153;28;20991;-81
2021/08/15 06:30:12;;;;;;;8.33;7.60;;;24.80;1.00;;;;;;5090379;28;20524;-81
2021/08/15 06:32:47;;;;;;;7.43;6.63;;;24.90;1.00;;;;;;5091560;28;20462;-81
2021/08/15 06:35:18;;;;;;;8.77;7.87;;;25.00;1.00;;;;;;5091279;28;20449;-81
2021/08/15 06:37:47;;;;;;;9.33;7.50;;;25.20;1.00;;;;;;5094894;28;21006;-80
2021/08/15 06:40:15;;;;;;;8.27;7.33;;;25.30;1.00;;;;;;5094265;28;20484;-81
2021/08/15 06:42:44;;;;;;;8.47;7.67;;;25.40;1.00;;;;;;5094963;28;20465;-81
2021/08/15 06:45:13;;;;;;;10.57;9.40;;;25.50;1.00;;;;;;5075977;28;20997;-82
2021/08/15 06:47:41;;;;;;;8.40;7.60;;;25.70;1.00;;;;;;5095580;28;20936;-81
2021/08/15 06:50:10;;;;;;;7.67;6.90;;;25.80;1.00;;;;;;5094102;28;20438;-81
2021/08/15 06:52:40;;;;;;;8.33;7.53;;;25.90;1.00;;;;;;5095612;28;20473;-80
2021/08/15 06:55:09;;;;;;;9.87;7.37;;;26.00;99.90;;;;;;5093998;28;20519;-81
2021/08/15 06:57:37;;;;;;;7.57;6.87;;;26.20;99.90;;;;;;5095956;28;20442;-81
2021/08/15 07:00:07;;;;;;;8.13;7.40;;;26.30;99.90;;;;;;5094737;28;20521;-81
2021/08/15 07:02:37;;;;;;;8.20;7.40;;;26.40;99.90;;;;;;5095073;28;20499;-81
2021/08/15 07:05:07;;;;;;;7.37;6.20;;;26.50;99.90;;;;;;5094062;28;20430;-81
2021/08/15 07:07:35;;;;;;;7.33;6.60;;;26.60;99.90;;;;;;5095468;28;20449;-81
2021/08/15 07:10:06;;;;;;;6.93;6.30;;;26.70;99.90;;;;;;5094265;28;20525;-81
2021/08/15 07:12:34;;;;;;;7.70;6.90;;;26.80;99.90;;;;;;5094813;28;20450;-81
2021/08/15 07:15:06;;;;;;;8.53;6.80;;;26.90;99.90;;;;;;5076663;28;20449;-81
2021/08/15 07:17:36;;;;;;;6.67;6.07;;;27.10;99.90;;;;;;5095909;28;20460;-81
2021/08/15 07:20:06;;;;;;;6.80;6.07;;;27.20;99.90;;;;;;5075918;28;20470;-81
2021/08/15 07:22:34;;;;;;;9.00;7.20;;;27.30;99.90;;;;;;5095686;28;20466;-80
2021/08/15 07:25:03;;;;;;;6.80;6.20;;;27.30;99.90;;;;;;5094264;28;20495;-81
2021/08/15 07:27:34;;;;;;;6.90;6.30;;;27.50;99.90;;;;;;5095538;28;20446;-81
2021/08/15 07:30:02;;;;;;;7.43;6.73;;;27.50;99.90;;;;;;5093395;28;20457;-81
2021/08/15 07:32:30;;;;;;;7.13;6.50;;;27.50;99.90;;;;;;5095487;28;20458;-81
2021/08/15 07:35:00;;;;;;;8.27;7.30;;;27.60;99.90;;;;;;5094543;28;20962;-82
2021/08/15 07:37:29;;;;;;;7.00;6.40;;;27.60;99.90;;;;;;5094348;28;20434;-81
2021/08/15 07:39:57;;;;;;;7.23;6.53;;;27.70;99.90;;;;;;5093051;28;21042;-81
2021/08/15 07:42:25;;;;;;;8.67;7.80;;;27.80;99.90;;;;;;5095160;28;20468;-81
2021/08/15 07:44:54;;;;;;;8.93;8.03;;;27.80;99.90;;;;;;5094322;28;20498;-81
2021/08/15 07:47:23;;;;;;;8.10;6.70;;;27.90;99.90;;;;;;5094823;28;20448;-81
2021/08/15 07:49:51;;;;;;;8.23;7.47;;;27.80;99.90;;;;;;5075740;28;20849;-82
2021/08/15 07:52:19;;;;;;;7.50;6.77;;;27.80;99.90;;;;;;5076226;28;20473;-81
2021/08/15 07:54:47;;;;;;;7.70;6.90;;;27.80;99.90;;;;;;5094093;28;20452;-82
2021/08/15 07:57:16;;;;;;;7.60;6.93;;;27.90;99.90;;;;;;5094689;28;20446;-81
2021/08/15 07:59:44;;;;;;;8.93;7.40;;;27.90;99.90;;;;;;5075140;28;20434;-81
2021/08/15 08:02:14;;;;;;;6.87;6.23;;;27.90;99.90;;;;;;5094874;28;20478;-81
2021/08/15 08:04:43;;;;;;;9.90;7.67;;;28.00;99.90;;;;;;5094976;28;20460;-81
2021/08/15 08:07:13;;;;;;;9.10;8.30;;;28.00;99.90;;;;;;5094698;28;20446;-82
2021/08/15 08:09:41;;;;;;;7.63;6.93;;;28.00;99.90;;;;;;5092635;28;20442;-81
2021/08/15 08:12:09;;;;;;;7.60;6.80;;;28.00;99.90;;;;;;5092622;28;20458;-81
2021/08/15 08:14:37;;;;;;;9.17;7.40;;;28.10;99.90;;;;;;5093918;28;20442;-81
2021/08/15 08:17:05;;;;;;;7.40;6.80;;;28.10;99.90;;;;;;5094415;28;20507;-82
2021/08/15 08:19:35;;;;;;;7.27;6.57;;;28.10;99.90;;;;;;5093782;28;20533;-81
2021/08/15 08:22:04;;;;;;;7.70;7.00;;;28.10;99.90;;;;;;5094146;28;20469;-81
2021/08/15 08:24:32;;;;;;;6.43;5.87;;;28.20;99.90;;;;;;5093617;28;20438;-81
2021/08/15 08:27:01;;;;;;;7.53;6.70;;;28.20;99.90;;;;;;5094186;28;20876;-81
2021/08/15 08:29:29;;;;;;;7.93;7.23;;;28.20;99.90;;;;;;5094293;28;20463;-81
2021/08/15 08:31:57;;;;;;;6.77;6.07;;;28.20;99.90;;;;;;5093967;28;20552;-81
2021/08/15 08:34:25;;;;;;;9.43;6.30;;;28.30;99.90;;;;;;5093655;28;21055;-82
2021/08/15 08:36:55;;;;;;;7.63;5.50;;;28.30;99.90;;;;;;5074503;28;20456;-81
2021/08/15 08:39:23;;;;;;;7.13;6.50;;;28.30;99.90;;;;;;5094184;28;20785;-81
2021/08/15 08:41:51;;;;;;;7.50;6.40;;;28.40;99.90;;;;;;5094222;28;20481;-82
2021/08/15 08:44:21;;;;;;;7.20;6.57;;;28.40;99.90;;;;;;5094671;28;21006;-81
2021/08/15 08:46:50;;;;;;;7.30;6.57;;;28.40;99.90;;;;;;5093064;28;20499;-82
2021/08/15 08:49:18;;;;;;;8.13;6.70;;;28.40;99.90;;;;;;5093750;28;20445;-80
2021/08/15 08:51:47;;;;;;;6.90;6.20;;;28.40;99.90;;;;;;5093107;28;20466;-82
2021/08/15 08:54:28;;;;;;;7.20;6.60;;;28.40;99.90;;;;;;5093541;28;20476;-81
2021/08/15 08:56:56;;;;;;;6.30;5.70;;;28.50;99.90;;;;;;5092815;28;20945;-82
2021/08/15 08:59:25;;;;;;;8.33;6.70;;;28.50;99.90;;;;;;5092152;28;20492;-82
2021/08/15 09:01:53;;;;;;;7.73;6.93;;;28.50;99.90;;;;;;5074621;28;20480;-81
2021/08/15 09:04:22;;;;;;;7.33;6.63;;;28.60;99.90;;;;;;5093671;28;20456;-82
2021/08/15 09:06:50;;;;;;;8.03;6.53;;;28.60;99.90;;;;;;5094158;28;20947;-81
2021/08/15 09:09:19;;;;;;;7.60;7.00;;;28.60;99.90;;;;;;5102089;28;20457;-81
2021/08/15 09:11:51;;;;;;;7.80;7.10;;;28.50;99.90;;;;;;5091828;28;20458;-81
2021/08/15 09:14:21;;;;;;;6.13;5.63;;;28.60;99.90;;;;;;5093489;28;20426;-81
2021/08/15 09:16:59;;;;;;;7.30;6.70;;;28.70;99.90;;;;;;5089783;28;20953;-82
2021/08/15 09:19:31;;;;;;;7.70;7.00;;;28.70;99.90;;;;;;5092615;28;20475;-82
2021/08/15 09:22:12;;;;;;;7.67;6.93;;;28.70;99.90;;;;;;5092821;28;20523;-81
2021/08/15 09:24:48;;;;;;;8.10;7.03;;;28.70;99.90;;;;;;5094421;28;20441;-81
2021/08/15 09:27:24;;;;;;;8.33;7.17;;;28.80;99.90;;;;;;5093453;28;21000;-81
2021/08/15 09:30:12;;;;;;;7.80;7.10;;;28.80;99.90;;;;;;5075234;28;20495;-81
2021/08/15 09:32:45;;;;;;;7.07;6.50;;;28.90;99.90;;;;;;5093327;28;20468;-81
2021/08/15 09:35:18;;;;;;;7.20;6.50;;;28.90;99.90;;;;;;5093329;28;20540;-82
2021/08/15 09:37:47;;;;;;;8.03;7.33;;;29.00;99.90;;;;;;5093428;28;20807;-82
2021/08/15 09:40:29;;;;;;;7.53;6.83;;;29.00;99.90;;;;;;5092979;28;20941;-82
2021/08/15 09:42:59;;;;;;;8.23;7.40;;;29.10;99.90;;;;;;5094048;28;20477;-81
2021/08/15 09:45:40;;;;;;;5.80;5.27;;;29.00;99.90;;;;;;5093046;28;20442;-81
2021/08/15 09:48:20;;;;;;;6.27;5.77;;;29.10;99.90;;;;;;5094364;28;20448;-81
2021/08/15 09:51:14;;;;;;;8.90;8.10;;;29.10;99.90;;;;;;5091368;28;20466;-82
2021/08/15 09:53:45;;;;;;;8.13;7.43;;;29.10;99.90;;;;;;5094446;28;20456;-81
2021/08/15 09:56:14;;;;;;;9.57;7.50;;;29.20;99.90;;;;;;5092398;28;20450;-81
2021/08/15 09:58:44;;;;;;;8.10;7.40;;;29.10;99.90;;;;;;5093627;28;20808;-82
2021/08/15 10:01:12;;;;;;;7.90;6.90;;;29.10;99.90;;;;;;5092002;28;20473;-81
2021/08/15 10:03:42;;;;;;;12.53;8.27;;;29.10;99.90;;;;;;5092779;28;20466;-82
2021/08/15 10:06:15;;;;;;;9.33;7.40;;;29.20;99.90;;;;;;5092810;28;20455;-82
2021/08/15 10:08:47;;;;;;;7.90;7.03;;;29.20;99.90;;;;;;5094090;28;20438;-81
2021/08/15 10:11:15;;;;;;;7.90;7.20;;;29.20;99.90;;;;;;5075863;28;20453;-81
2021/08/15 10:13:45;;;;;;;9.13;8.23;;;29.30;99.90;;;;;;5096455;28;20881;-82
2021/08/15 10:16:14;;;;;;;8.37;7.40;;;29.30;99.90;;;;;;5096491;28;20464;-82
2021/08/15 10:18:48;;;;;;;8.80;8.00;;;29.30;99.90;;;;;;5078423;28;20471;-81
2021/08/15 10:21:21;;;;;;;7.27;6.63;;;29.40;99.90;;;;;;5096321;28;20437;-82
2021/08/15 10:23:49;;;;;;;8.43;7.73;;;29.40;99.90;;;;;;5096878;28;20489;-82
2021/08/15 10:26:54;;;;;;;7.77;7.17;;;29.40;99.90;;;;;;5096686;28;20534;-80
2021/08/15 10:29:43;;;;;;;9.40;7.60;;;29.50;99.90;;;;;;5095422;28;20438;-81
2021/08/15 10:32:16;;;;;;;6.90;6.30;;;29.60;99.90;;;;;;5097450;28;20465;-81
2021/08/15 10:35:18;;;;;;;10.77;7.80;;;29.60;99.90;;;;;;5078048;28;20852;-81
2021/08/15 10:37:52;;;;;;;8.97;8.07;;;29.50;99.90;;;;;;5096761;28;20461;-81
2021/08/15 10:40:49;;;;;;;8.63;8.00;;;29.50;99.90;;;;;;5094998;28;20437;-81
2021/08/15 10:43:58;;;;;;;7.33;6.73;;;29.60;99.90;;;;;;5097364;28;20477;-82
2021/08/15 10:46:28;;;;;;;7.40;6.60;;;29.70;99.90;;;;;;5079063;28;20438;-82
2021/08/15 10:48:58;;;;;;;7.50;6.80;;;29.70;99.90;;;;;;5077724;28;20481;-81
2021/08/15 10:51:48;;;;;;;7.23;6.50;;;29.70;99.90;;;;;;5096838;28;21117;-82
2021/08/15 10:55:07;;;;;;;9.03;7.60;;;29.70;99.90;;;;;;5073079;28;20454;-81
2021/08/15 10:57:50;;;;;;;10.50;8.20;;;29.80;99.90;;;;;;5096063;28;20506;-82
2021/08/15 11:00:47;;;;;;;8.73;6.37;;;29.70;99.90;;;;;;5095634;28;20449;-80
2021/08/15 11:03:59;;;;;;;7.90;7.10;;;29.60;99.90;;;;;;5048267;28;20501;-82
2021/08/15 11:06:49;;;;;;;7.80;7.10;;;29.60;99.90;;;;;;5096229;28;20465;-81
2021/08/15 11:09:18;;;;;;;8.00;7.30;;;29.70;99.90;;;;;;5094314;28;20449;-82
2021/08/15 11:12:12;;;;;;;7.20;6.50;;;29.70;99.90;;;;;;5095301;28;20548;-81
2021/08/15 11:15:04;;;;;;;7.47;6.57;;;29.80;99.90;;;;;;5074351;28;20449;-82
2021/08/15 11:17:34;;;;;;;6.50;5.60;;;29.90;99.90;;;;;;5096013;28;20509;-81
2021/08/15 11:20:34;;;;;;;8.83;5.87;;;29.90;99.90;;;;;;5076921;28;20446;-82
2021/08/15 11:23:18;;;;;;;10.37;6.53;;;29.90;99.90;;;;;;5088277;28;20919;-82
2021/08/15 11:25:47;;;;;;;6.80;6.20;;;29.90;99.90;;;;;;5077838;28;20433;-81
2021/08/15 11:28:17;;;;;;;7.07;6.47;;;29.90;99.90;;;;;;5094780;28;20442;-82
2021/08/15 11:30:52;;;;;;;7.13;6.40;;;30.00;99.90;;;;;;5095806;28;20450;-81
2021/08/15 11:33:22;;;;;;;7.17;6.57;;;30.00;99.90;;;;;;5076416;28;20477;-81
2021/08/15 11:35:52;;;;;;;8.13;7.33;;;30.00;99.90;;;;;;5095111;28;20434;-82
2021/08/15 11:38:22;;;;;;;5.17;4.63;;;30.00;99.90;;;;;;5093166;28;20483;-81
2021/08/15 11:40:52;;;;;;;7.87;6.23;;;30.00;99.90;;;;;;5094658;28;20445;-82
2021/08/15 11:43:25;;;;;;;7.00;6.10;;;29.90;99.90;;;;;;5094671;28;20473;-82
2021/08/15 11:45:55;;;;;;;5.90;5.30;;;29.90;99.90;;;;;;5077203;28;20433;-81
2021/08/15 11:48:26;;;;;;;4.20;3.90;;;29.90;99.90;;;;;;5094948;28;20695;-81
2021/08/15 11:50:56;;;;;;;4.00;3.70;;;29.80;99.90;;;;;;5075076;28;20431;-82
2021/08/15 11:53:29;;;;;;;7.40;6.73;;;29.80;99.90;;;;;;5055310;28;20485;-81
2021/08/15 11:56:00;;;;;;;6.17;5.67;;;29.80;99.90;;;;;;5075527;28;20439;-81
2021/08/15 11:58:28;;;;;;;7.33;6.07;;;29.80;99.90;;;;;;5083281;28;20449;-82
2021/08/15 12:01:05;;;;;;;7.93;6.67;;;29.80;99.90;;;;;;5094453;28;20669;-80
2021/08/15 12:03:33;;;;;;;10.13;7.17;;;29.70;99.90;;;;;;5094594;28;20485;-82
2021/08/15 12:06:09;;;;;;;8.80;7.50;;;29.70;99.90;;;;;;5076470;28;20445;-82
2021/08/15 12:08:40;;;;;;;11.77;7.50;;;29.60;99.90;;;;;;5095572;28;20445;-81
2021/08/15 12:11:23;;;;;;;9.63;8.00;;;29.50;1.00;;;;;;5073694;28;20958;-81
2021/08/15 12:13:52;;;;;;;11.53;9.80;;;29.40;1.00;;;;;;5099931;28;20867;-81
2021/08/15 12:16:24;;;;;;;9.90;8.90;;;29.30;1.00;;;;;;5084028;28;20449;-81
2021/08/15 12:18:54;;;;;;;11.17;8.93;;;29.30;99.90;;;;;;5094963;28;20503;-82
2021/08/15 12:21:25;;;;;;;13.63;10.47;;;29.20;99.90;;;;;;5093900;28;20484;-80
2021/08/15 12:24:15;;;;;;;12.80;10.20;;;29.20;99.90;;;;;;5095294;28;21216;-82
2021/08/15 12:26:53;;;;;;;13.17;10.60;;;29.00;1.00;;;;;;5093165;28;20446;-82
2021/08/15 12:29:24;;;;;;;9.30;8.23;;;28.90;1.00;;;;;;5093793;28;20438;-82
2021/08/15 12:32:03;;;;;;;9.90;5.07;;;28.70;35.80;;;;;;5093541;28;20537;-81
2021/08/15 12:34:33;;;;;;;6.23;4.00;;;28.20;1.00;;;;;;5074717;28;21011;-82
2021/08/15 12:37:10;;;;;;;6.60;4.37;;;27.60;99.90;;;;;;5093269;28;20434;-82
2021/08/15 12:39:42;;;;;;;8.50;5.43;;;27.30;99.90;;;;;;5093494;28;21209;-81
2021/08/15 12:42:16;;;;;;;4.90;3.70;;;27.40;1.00;;;;;;5094284;28;20446;-81
2021/08/15 12:44:56;;;;;;;5.00;4.00;;;27.20;1.00;;;;;;5074751;28;20442;-82
2021/08/15 12:47:26;;;;;;;10.60;4.13;;;27.00;99.90;;;;;;5093496;28;20855;-82
2021/08/15 12:50:05;;;;;;;5.27;4.60;;;27.00;99.90;;;;;;5092767;28;20521;-81
2021/08/15 12:52:45;;;;;;;5.90;3.73;;;27.10;99.90;;;;;;5093255;28;20491;-81
2021/08/15 12:55:24;;;;;;;6.63;4.20;;;27.10;99.90;;;;;;5092252;28;21018;-82
2021/08/15 12:57:59;;;;;;;5.00;4.53;;;27.10;1.00;;;;;;5093289;28;20446;-81
2021/08/15 13:00:29;;;;;;;5.13;4.50;;;27.00;1.00;;;;;;5091692;28;20509;-82
2021/08/15 13:02:58;;;;;;;5.30;4.60;;;27.10;1.00;;;;;;5075085;28;20497;-82
2021/08/15 13:05:29;;;;;;;5.77;5.17;;;27.10;1.00;;;;;;5073614;28;20461;-82
2021/08/15 13:07:58;;;;;;;9.00;5.03;;;26.90;1.00;;;;;;5093835;28;20446;-81
2021/08/15 13:10:27;;;;;;;5.70;5.10;;;26.80;1.00;;;;;;5091031;28;20461;-82